Time;durP1;ratioP1;P1;durP2;ratioP2;P2;SDS_P1;SDS_P2;PMS_P1;PMS_P2;Temp;Humidity;BMP_temperature;BMP_pressure;BME280_temperature;BME280_humidity;BME280_pressure;Samples;Min_cycle;Max_cycle;Signal;HPM_P1;HPM_P2
2022/05/05 00:01:03;;;;;;;12.05;6.28;;;;;;;;;;5119506;28;20105;-87
2022/05/05 00:03:47;;;;;;;11.90;5.90;;;;;;;;;;5123465;28;20088;-87
2022/05/05 00:06:32;;;;;;;10.48;5.93;;;;;;;;;;5130339;28;20062;-87
2022/05/05 00:09:17;;;;;;;13.60;5.90;;;;;;;;;;5122555;28;20510;-87
2022/05/05 00:15:07;;;;;;;14.47;6.40;;;;;;;;;;5124844;28;20042;-88
2022/05/05 00:17:51;;;;;;;12.50;6.00;;;;;;;;;;5098262;28;20043;-87
2022/05/05 00:20:36;;;;;;;12.65;6.10;;;;;;;;;;5112952;28;20461;-88
2022/05/05 00:23:20;;;;;;;14.55;6.60;;;;;;;;;;5111632;28;20522;-88
2022/05/05 00:26:05;;;;;;;16.60;6.93;;;;;;;;;;5121393;27;20532;-87
2022/05/05 00:28:49;;;;;;;11.18;6.40;;;;;;;;;;5117754;27;20042;-89
2022/05/05 00:31:34;;;;;;;12.38;6.03;;;;;;;;;;5132248;28;20038;-88
2022/05/05 00:34:19;;;;;;;12.55;5.78;;;;;;;;;;5132618;28;20122;-88
2022/05/05 00:37:03;;;;;;;13.50;6.22;;;;;;;;;;5132452;28;20087;-88
2022/05/05 00:39:48;;;;;;;13.80;6.15;;;;;;;;;;5132134;28;20042;-88
2022/05/05 00:42:33;;;;;;;12.50;6.05;;;;;;;;;;5132134;28;20446;-88
2022/05/05 00:45:18;;;;;;;15.93;6.72;;;;;;;;;;5132556;28;20572;-88
2022/05/05 00:48:13;;;;;;;18.13;6.45;;;;;;;;;;5132463;28;20038;-88
2022/05/05 00:50:58;;;;;;;10.25;5.78;;;;;;;;;;5132438;28;20038;-88
2022/05/05 00:53:43;;;;;;;13.93;6.03;;;;;;;;;;5131979;28;20076;-87
2022/05/05 00:56:28;;;;;;;14.52;5.85;;;;;;;;;;5132444;28;20163;-88
2022/05/05 00:59:13;;;;;;;12.25;6.72;;;;;;;;;;5132475;28;20470;-87
2022/05/05 01:01:58;;;;;;;16.17;6.47;;;;;;;;;;5132360;28;20130;-87
2022/05/05 01:04:43;;;;;;;15.32;5.97;;;;;;;;;;5117496;28;20107;-88
2022/05/05 01:07:28;;;;;;;10.10;5.45;;;;;;;;;;5132443;28;20076;-88
2022/05/05 01:10:13;;;;;;;14.63;6.63;;;;;;;;;;5132289;28;20034;-87
2022/05/05 01:13:01;;;;;;;13.88;5.30;;;;;;;;;;5131890;28;20038;-88
2022/05/05 01:15:46;;;;;;;12.32;6.00;;;;;;;;;;5131828;28;20104;-88
2022/05/05 01:18:30;;;;;;;11.57;6.18;;;;;;;;;;5132239;28;20037;-88
2022/05/05 01:21:15;;;;;;;11.30;5.57;;;;;;;;;;5132169;28;20480;-87
2022/05/05 01:23:59;;;;;;;14.88;6.32;;;;;;;;;;5131945;28;20042;-88
2022/05/05 01:29:48;;;;;;;12.00;6.10;;;;;;;;;;5132806;28;20039;-88
2022/05/05 01:32:33;;;;;;;16.42;6.30;;;;;;;;;;5132292;28;20038;-87
2022/05/05 01:35:18;;;;;;;11.57;6.20;;;;;;;;;;5132246;28;20099;-87
2022/05/05 01:38:07;;;;;;;12.43;5.80;;;;;;;;;;5132176;28;20039;-88
2022/05/05 01:40:52;;;;;;;11.00;6.55;;;;;;;;;;5132732;28;20422;-88
2022/05/05 01:43:37;;;;;;;12.48;5.32;;;;;;;;;;5131999;28;20062;-88
2022/05/05 01:46:22;;;;;;;11.93;5.55;;;;;;;;;;5132998;27;20088;-88
2022/05/05 01:49:06;;;;;;;11.32;5.57;;;;;;;;;;5135435;27;20077;-87
2022/05/05 01:51:54;;;;;;;14.95;5.97;;;;;;;;;;5135211;27;20042;-88
2022/05/05 01:54:39;;;;;;;10.80;5.70;;;;;;;;;;5135181;27;20599;-89
2022/05/05 01:57:23;;;;;;;11.68;5.57;;;;;;;;;;5136638;27;20038;-87
2022/05/05 02:00:08;;;;;;;10.85;5.97;;;;;;;;;;5135542;27;20470;-87
2022/05/05 02:02:53;;;;;;;14.60;6.22;;;;;;;;;;5134843;27;20083;-87
2022/05/05 02:05:38;;;;;;;12.48;6.40;;;;;;;;;;5135425;27;20076;-88
2022/05/05 02:08:23;;;;;;;9.18;5.60;;;;;;;;;;5136405;27;20038;-88
2022/05/05 02:11:07;;;;;;;14.57;5.88;;;;;;;;;;5135253;27;20030;-87
2022/05/05 02:13:52;;;;;;;15.18;5.57;;;;;;;;;;5134783;27;20442;-88
2022/05/05 02:16:36;;;;;;;11.73;5.68;;;;;;;;;;5136266;27;20034;-87
2022/05/05 02:19:21;;;;;;;10.82;6.18;;;;;;;;;;5121437;27;20062;-87
2022/05/05 02:22:05;;;;;;;13.55;6.35;;;;;;;;;;5135138;27;20050;-87
2022/05/05 02:24:50;;;;;;;13.98;5.70;;;;;;;;;;5135710;27;20498;-88
2022/05/05 02:27:51;;;;;;;13.57;6.03;;;;;;;;;;5135208;27;20088;-88
2022/05/05 02:30:35;;;;;;;12.82;5.53;;;;;;;;;;5134950;27;20075;-88
2022/05/05 02:33:20;;;;;;;14.30;6.10;;;;;;;;;;5134785;27;20096;-87
2022/05/05 02:39:09;;;;;;;12.05;6.72;;;;;;;;;;5135802;27;20466;-88
2022/05/05 02:41:54;;;;;;;11.55;6.20;;;;;;;;;;5119799;27;20407;-87
2022/05/05 02:44:38;;;;;;;15.25;7.03;;;;;;;;;;5134817;27;20085;-87
2022/05/05 02:47:23;;;;;;;14.15;7.38;;;;;;;;;;5134818;27;20092;-87
2022/05/05 02:50:08;;;;;;;11.88;6.40;;;;;;;;;;5134208;27;20042;-87
2022/05/05 02:52:54;;;;;;;13.50;6.75;;;;;;;;;;5134255;27;20390;-87
2022/05/05 02:55:39;;;;;;;10.20;6.78;;;;;;;;;;5134660;27;20080;-87
2022/05/05 02:58:23;;;;;;;15.15;7.05;;;;;;;;;;5134333;27;20042;-87
2022/05/05 03:01:08;;;;;;;21.23;7.40;;;;;;;;;;5133965;27;20103;-87
2022/05/05 03:03:53;;;;;;;17.15;7.93;;;;;;;;;;5134037;27;20554;-88
2022/05/05 03:06:37;;;;;;;16.25;7.45;;;;;;;;;;5135496;27;20086;-87
2022/05/05 03:09:22;;;;;;;12.45;7.25;;;;;;;;;;5134187;27;20042;-87
2022/05/05 03:12:07;;;;;;;13.40;7.15;;;;;;;;;;5133718;27;20487;-88
2022/05/05 03:14:51;;;;;;;14.52;6.50;;;;;;;;;;5133662;27;20034;-88
2022/05/05 03:17:36;;;;;;;15.35;7.05;;;;;;;;;;5134062;27;20543;-88
2022/05/05 03:20:21;;;;;;;11.52;7.43;;;;;;;;;;5135179;27;20038;-88
2022/05/05 03:23:05;;;;;;;12.95;7.85;;;;;;;;;;5118854;27;20076;-87
2022/05/05 03:25:50;;;;;;;19.35;7.85;;;;;;;;;;5133152;27;20058;-89
2022/05/05 03:28:34;;;;;;;12.25;7.68;;;;;;;;;;5133725;27;20490;-88
2022/05/05 03:31:19;;;;;;;15.65;7.80;;;;;;;;;;5133990;27;20445;-88
2022/05/05 03:34:04;;;;;;;13.02;7.47;;;;;;;;;;5134311;27;20099;-88
2022/05/05 03:36:49;;;;;;;14.18;8.13;;;;;;;;;;5133826;27;20053;-87
2022/05/05 03:39:33;;;;;;;19.38;8.50;;;;;;;;;;5133586;27;20544;-87
2022/05/05 03:42:18;;;;;;;20.45;8.85;;;;;;;;;;5119071;27;20398;-88
2022/05/05 03:45:05;;;;;;;18.13;9.45;;;;;;;;;;5132962;27;20045;-88
2022/05/05 03:47:50;;;;;;;12.93;8.07;;;;;;;;;;5134492;27;20042;-87
2022/05/05 03:50:35;;;;;;;15.40;9.18;;;;;;;;;;5133578;27;20034;-88
2022/05/05 03:53:20;;;;;;;13.55;8.10;;;;;;;;;;5134294;27;20406;-88
2022/05/05 03:56:05;;;;;;;16.15;9.07;;;;;;;;;;5118390;27;20398;-88
2022/05/05 03:58:49;;;;;;;15.63;9.10;;;;;;;;;;5133264;27;20074;-88
2022/05/05 04:01:34;;;;;;;12.70;8.13;;;;;;;;;;5133107;27;20395;-88
2022/05/05 04:04:19;;;;;;;17.88;8.27;;;;;;;;;;5134075;27;20038;-88
2022/05/05 04:07:04;;;;;;;15.40;8.45;;;;;;;;;;5132746;27;20042;-88
2022/05/05 04:09:49;;;;;;;16.13;8.23;;;;;;;;;;5132650;27;20038;-88
2022/05/05 04:12:34;;;;;;;17.75;8.38;;;;;;;;;;5133149;27;20042;-88
2022/05/05 04:15:18;;;;;;;13.13;8.30;;;;;;;;;;5118044;27;20103;-88
2022/05/05 04:18:05;;;;;;;16.75;8.35;;;;;;;;;;5133478;27;20084;-88
2022/05/05 04:20:50;;;;;;;14.20;7.95;;;;;;;;;;5132886;27;20125;-88
2022/05/05 04:23:35;;;;;;;14.40;8.43;;;;;;;;;;5132781;27;20122;-88
2022/05/05 04:26:20;;;;;;;14.27;7.80;;;;;;;;;;5129828;27;20107;-88
2022/05/05 04:29:05;;;;;;;17.00;7.97;;;;;;;;;;5132299;27;20049;-87
2022/05/05 04:31:52;;;;;;;13.82;8.02;;;;;;;;;;5134025;27;20512;-88
2022/05/05 04:34:37;;;;;;;15.23;8.35;;;;;;;;;;5118443;28;20083;-87
2022/05/05 04:37:22;;;;;;;16.70;7.90;;;;;;;;;;5132629;28;20436;-88
2022/05/05 04:40:07;;;;;;;13.73;8.63;;;;;;;;;;5133413;28;20115;-88
2022/05/05 04:42:52;;;;;;;16.55;9.00;;;;;;;;;;5133328;28;20459;-88
2022/05/05 04:45:37;;;;;;;13.07;8.15;;;;;;;;;;5133362;28;20056;-88
2022/05/05 04:48:21;;;;;;;20.85;8.43;;;;;;;;;;5135789;28;20042;-87
2022/05/05 04:51:06;;;;;;;13.77;8.20;;;;;;;;;;5133228;28;20419;-88
2022/05/05 04:53:50;;;;;;;13.25;8.05;;;;;;;;;;5134328;28;20513;-88
2022/05/05 04:56:35;;;;;;;17.92;9.57;;;;;;;;;;5134441;28;20058;-88
2022/05/05 04:59:19;;;;;;;12.88;8.00;;;;;;;;;;5126103;28;20046;-88
2022/05/05 05:02:04;;;;;;;13.48;8.80;;;;;;;;;;5150560;28;20046;-87
2022/05/05 05:04:49;;;;;;;18.92;8.93;;;;;;;;;;5151985;28;20056;-88
2022/05/05 05:07:34;;;;;;;17.77;8.18;;;;;;;;;;5152767;28;20038;-87
2022/05/05 05:10:18;;;;;;;14.27;7.88;;;;;;;;;;5151170;28;20095;-87
2022/05/05 05:13:03;;;;;;;18.08;9.82;;;;;;;;;;5147269;28;20115;-87
2022/05/05 05:15:48;;;;;;;15.43;9.10;;;;;;;;;;5134139;28;20039;-88
2022/05/05 05:18:32;;;;;;;13.98;8.48;;;;;;;;;;5133686;28;20506;-88
2022/05/05 05:21:16;;;;;;;13.77;8.60;;;;;;;;;;5132844;27;20444;-88
2022/05/05 05:24:02;;;;;;;14.57;9.02;;;;;;;;;;5121919;27;20533;-88
2022/05/05 05:26:47;;;;;;;17.33;8.60;;;;;;;;;;5129658;27;20054;-88
2022/05/05 05:29:31;;;;;;;17.58;9.35;;;;;;;;;;5137408;27;20528;-88
2022/05/05 05:32:16;;;;;;;12.05;8.38;;;;;;;;;;5136014;27;20095;-88
2022/05/05 05:35:01;;;;;;;15.80;8.70;;;;;;;;;;5136380;27;20168;-88
2022/05/05 05:37:45;;;;;;;15.75;7.53;;;;;;;;;;5136368;27;20153;-88
2022/05/05 05:40:33;;;;;;;13.48;7.55;;;;;;;;;;5136422;27;20543;-88
2022/05/05 05:43:18;;;;;;;11.18;6.63;;;;;;;;;;5135414;27;20126;-88
2022/05/05 05:46:02;;;;;;;10.32;6.75;;;;;;;;;;5136110;27;20111;-88
2022/05/05 05:48:47;;;;;;;19.73;8.15;;;;;;;;;;5135949;27;20088;-88
2022/05/05 05:51:31;;;;;;;11.02;6.82;;;;;;;;;;5136403;27;20119;-88
2022/05/05 05:54:18;;;;;;;14.05;6.68;;;;;;;;;;5135231;27;20038;-88
2022/05/05 05:57:03;;;;;;;14.85;7.80;;;;;;;;;;5135720;27;20102;-88
2022/05/05 05:59:47;;;;;;;18.33;7.90;;;;;;;;;;5135971;27;20083;-89
2022/05/05 06:05:38;;;;;;;15.10;8.40;;;;;;;;;;5135801;27;20490;-88
2022/05/05 06:08:23;;;;;;;17.83;8.10;;;;;;;;;;5120794;27;20038;-89
2022/05/05 06:11:11;;;;;;;16.00;6.80;;;;;;;;;;5136067;27;20083;-89
2022/05/05 06:13:57;;;;;;;16.98;7.90;;;;;;;;;;5135702;27;20034;-88
2022/05/05 06:16:42;;;;;;;14.45;7.25;;;;;;;;;;5135397;27;20054;-87
2022/05/05 06:19:27;;;;;;;14.73;7.28;;;;;;;;;;5134809;27;20058;-88
2022/05/05 06:22:15;;;;;;;16.70;7.22;;;;;;;;;;5136462;27;20038;-89
2022/05/05 06:24:59;;;;;;;12.68;6.90;;;;;;;;;;5136037;27;20091;-88
2022/05/05 06:27:44;;;;;;;17.42;7.18;;;;;;;;;;5134978;27;20057;-87
2022/05/05 06:30:29;;;;;;;12.93;7.25;;;;;;;;;;5134621;27;20041;-87
2022/05/05 06:33:14;;;;;;;13.63;7.45;;;;;;;;;;5134967;27;20499;-88
2022/05/05 06:35:59;;;;;;;14.15;7.88;;;;;;;;;;5135097;27;20097;-88
2022/05/05 06:38:47;;;;;;;12.15;7.40;;;;;;;;;;5136140;27;20129;-88
2022/05/05 06:41:32;;;;;;;12.52;7.15;;;;;;;;;;5134176;27;20042;-88
2022/05/05 06:44:16;;;;;;;12.60;7.47;;;;;;;;;;5134395;27;20384;-88
2022/05/05 06:47:01;;;;;;;11.27;6.55;;;;;;;;;;5134866;27;20042;-88
2022/05/05 06:49:46;;;;;;;14.30;6.50;;;;;;;;;;5134770;27;20033;-88
2022/05/05 06:52:30;;;;;;;16.23;7.13;;;;;;;;;;5134173;27;20100;-87
2022/05/05 06:55:15;;;;;;;13.80;6.45;;;;;;;;;;5119688;27;20042;-89
2022/05/05 06:58:00;;;;;;;15.40;7.72;;;;;;;;;;5135749;27;20060;-88
2022/05/05 07:05:22;;;;;;;12.73;6.78;;;;;;;;;;5135127;27;20050;-88
2022/05/05 07:06:53;;;;;;;10.40;6.22;;;;;;;;;;5134560;27;20099;-88
2022/05/05 07:12:41;;;;;;;13.48;6.57;;;;;;;;;;5135037;27;20403;-88
2022/05/05 07:15:26;;;;;;;15.57;9.10;;;;;;;;;;5133740;27;20034;-88
2022/05/05 07:18:11;;;;;;;17.48;7.30;;;;;;;;;;5119720;27;20398;-88
2022/05/05 07:20:57;;;;;;;15.73;7.15;;;;;;;;;;5134061;27;20038;-88
2022/05/05 07:23:43;;;;;;;14.13;6.38;;;;;;;;;;5133915;27;20095;-87
2022/05/05 07:26:27;;;;;;;11.20;5.85;;;;;;;;;;5137432;27;20050;-88
2022/05/05 07:29:11;;;;;;;12.90;5.47;;;;;;;;;;5125664;27;20562;-88
2022/05/05 07:31:59;;;;;;;11.98;6.15;;;;;;;;;;5140137;27;20041;-87
2022/05/05 07:34:43;;;;;;;11.88;5.63;;;;;;;;;;5125591;27;20118;-88
2022/05/05 07:37:28;;;;;;;15.00;5.97;;;;;;;;;;5139293;27;20079;-87
2022/05/05 07:40:12;;;;;;;12.85;6.32;;;;;;;;;;5139654;27;20075;-88
2022/05/05 07:42:57;;;;;;;13.82;5.75;;;;;;;;;;5139447;27;20041;-88
2022/05/05 07:45:42;;;;;;;10.88;5.00;;;;;;;;;;5138222;27;20034;-88
2022/05/05 07:48:26;;;;;;;15.90;5.10;;;;;;;;;;5154769;27;20065;-88
2022/05/05 07:51:12;;;;;;;11.10;4.75;;;;;;;;;;5139342;27;20045;-88
2022/05/05 07:57:00;;;;;;;11.80;4.70;;;;;;;;;;5155183;27;20045;-88
2022/05/05 07:59:45;;;;;;;14.40;4.82;;;;;;;;;;5138905;27;20539;-88
2022/05/05 08:02:30;;;;;;;10.82;4.65;;;;;;;;;;5154372;27;20050;-88
2022/05/05 08:05:14;;;;;;;10.15;4.50;;;;;;;;;;5154836;27;20378;-88
2022/05/05 08:08:02;;;;;;;11.63;4.15;;;;;;;;;;5154995;27;20034;-88
2022/05/05 08:10:47;;;;;;;12.65;4.85;;;;;;;;;;5138699;27;20038;-88
2022/05/05 08:13:35;;;;;;;12.75;4.40;;;;;;;;;;5138813;27;20041;-88
2022/05/05 08:16:19;;;;;;;14.15;4.50;;;;;;;;;;5139163;27;20034;-88
2022/05/05 08:19:04;;;;;;;14.13;4.28;;;;;;;;;;5154692;27;20038;-87
2022/05/05 08:21:52;;;;;;;12.93;5.03;;;;;;;;;;5138402;27;20119;-87
2022/05/05 08:30:43;;;;;;;9.57;3.47;;;;;;;;;;5153974;27;20497;-88
2022/05/05 08:33:28;;;;;;;9.13;3.33;;;;;;;;;;5138327;27;20410;-88
2022/05/05 08:36:13;;;;;;;9.07;3.75;;;;;;;;;;5154361;27;20086;-87
2022/05/05 08:38:57;;;;;;;9.75;3.60;;;;;;;;;;5124469;27;20099;-87
2022/05/05 08:41:42;;;;;;;7.60;3.33;;;;;;;;;;5153871;27;20038;-87
2022/05/05 08:44:27;;;;;;;6.68;3.08;;;;;;;;;;5138399;27;20039;-90
2022/05/05 08:47:15;;;;;;;8.98;3.45;;;;;;;;;;5154341;27;20077;-89
2022/05/05 08:50:01;;;;;;;9.60;4.35;;;;;;;;;;5138813;27;20038;-88
2022/05/05 08:52:48;;;;;;;12.35;4.55;;;;;;;;;;5138353;27;20050;-88
2022/05/05 08:55:34;;;;;;;7.40;4.30;;;;;;;;;;5153817;27;20038;-88
2022/05/05 08:58:20;;;;;;;9.50;4.07;;;;;;;;;;5158350;27;20042;-88
2022/05/05 09:01:04;;;;;;;9.90;4.07;;;;;;;;;;5142749;27;20087;-88
2022/05/05 09:03:49;;;;;;;9.48;4.20;;;;;;;;;;5142205;27;20402;-88
2022/05/05 09:06:41;;;;;;;12.73;4.50;;;;;;;;;;5142090;27;20423;-88
2022/05/05 09:09:33;;;;;;;7.63;4.00;;;;;;;;;;5142673;27;20034;-88
2022/05/05 09:12:23;;;;;;;9.65;4.15;;;;;;;;;;5142534;27;20042;-87
2022/05/05 09:15:10;;;;;;;7.80;4.50;;;;;;;;;;5142192;27;20089;-89
2022/05/05 09:17:54;;;;;;;14.30;5.07;;;;;;;;;;5157716;27;20462;-87
2022/05/05 09:20:39;;;;;;;9.70;4.70;;;;;;;;;;5141960;27;20065;-88
2022/05/05 09:23:34;;;;;;;7.32;4.60;;;;;;;;;;5142104;27;20169;-87
2022/05/05 09:26:24;;;;;;;11.15;4.40;;;;;;;;;;5141928;27;20037;-88
2022/05/05 09:29:22;;;;;;;12.55;4.43;;;;;;;;;;5158684;27;20034;-89
2022/05/05 09:32:14;;;;;;;9.88;4.65;;;;;;;;;;5158351;27;20083;-89
2022/05/05 09:34:59;;;;;;;9.93;5.05;;;;;;;;;;5142430;27;20073;-88
2022/05/05 09:37:48;;;;;;;11.10;5.22;;;;;;;;;;5142446;27;20466;-87
2022/05/05 09:40:36;;;;;;;8.75;5.32;;;;;;;;;;5141931;27;20515;-88
2022/05/05 09:43:28;;;;;;;12.20;4.80;;;;;;;;;;5141811;27;20434;-87
2022/05/05 09:46:28;;;;;;;11.77;5.03;;;;;;;;;;5141876;27;20386;-88
2022/05/05 09:49:14;;;;;;;10.15;4.95;;;17.50;90.50;;;;;;5141768;27;20042;-88
2022/05/05 09:58:26;;;;;;;8.30;5.43;;;;;;;;;;5082927;28;20093;-87
2022/05/05 10:01:21;;;;;;;9.73;4.95;;;;;;;;;;5141370;27;20103;-88
2022/05/05 10:04:06;;;;;;;9.88;4.93;;;;;;;;;;5141896;27;20042;-87
2022/05/05 10:06:50;;;;;;;8.48;4.85;;;;;;;;;;5142308;27;20455;-88
2022/05/05 10:09:39;;;;;;;14.23;6.13;;;;;;;;;;5152505;27;20087;-88
2022/05/05 10:12:25;;;;;;;8.38;4.60;;;;;;;;;;5157095;27;20095;-87
2022/05/05 10:15:12;;;;;;;8.95;4.85;;;;;;;;;;5158072;27;20052;-88
2022/05/05 10:17:57;;;;;;;10.25;4.82;;;;;;;;;;5159539;27;20061;-88
2022/05/05 10:20:45;;;;;;;10.82;4.68;;;;;;;;;;5155295;27;20033;-88
2022/05/05 10:23:33;;;;;;;8.32;4.60;;;;;;;;;;5157349;27;20061;-88
2022/05/05 10:26:22;;;;;;;9.93;5.53;;;;;;;;;;5141471;27;20030;-88
2022/05/05 10:29:26;;;;;;;7.10;4.88;;;;;;;;;;5141653;27;20387;-88
2022/05/05 10:32:18;;;;;;;9.02;4.95;;;19.10;82.80;;;;;;5141061;27;20049;-88
2022/05/05 10:35:02;;;;;;;9.48;5.22;;;;;;;;;;5140932;27;20037;-88
2022/05/05 10:37:50;;;;;;;9.90;6.13;;;;;;;;;;5156415;27;20456;-88
2022/05/05 10:40:44;;;;;;;8.35;5.15;;;;;;;;;;5127096;27;20542;-89
2022/05/05 10:43:35;;;;;;;9.43;6.13;;;;;;;;;;5126856;27;20083;-88
2022/05/05 10:46:57;;;;;;;7.95;5.22;;;19.10;82.10;;;;;;5141038;27;20116;-88
2022/05/05 10:49:42;;;;;;;10.45;5.22;;;;;;;;;;5140698;27;20113;-87
2022/05/05 10:52:27;;;;;;;9.90;5.30;;;;;;;;;;5140526;27;20377;-87
2022/05/05 10:55:32;;;;;;;8.68;5.03;;;19.50;79.50;;;;;;5126283;27;20118;-87
2022/05/05 10:58:54;;;;;;;9.98;5.05;;;19.60;78.80;;;;;;5140529;27;20111;-88
2022/05/05 11:01:42;;;;;;;11.25;5.20;;;;;;;;;;5140355;27;20450;-88
2022/05/05 11:04:31;;;;;;;8.30;4.75;;;;;;;;;;5140512;27;20040;-89
2022/05/05 11:07:25;;;;;;;8.98;5.05;;;21.90;75.90;;;;;;5156481;27;20041;-88
2022/05/05 11:10:33;;;;;;;7.95;5.10;;;;;;;;;;5156418;27;20057;-88
2022/05/05 11:13:40;;;;;;;10.52;5.60;;;;;;;;;;5140496;27;20129;-88
2022/05/05 11:22:41;;;;;;;9.80;5.07;;;;;;;;;;5155613;27;20046;-87
2022/05/05 11:25:28;;;;;;;10.90;5.65;;;;;;;;;;5140548;27;20551;-87
2022/05/05 11:28:14;;;;;;;9.23;4.78;;;;;;;;;;5140377;27;20091;-88
2022/05/05 11:30:58;;;;;;;7.40;4.55;;;;;;;;;;5139703;27;20037;-88
2022/05/05 11:33:46;;;;;;;10.32;4.43;;;;;;;;;;5156025;27;20041;-88
2022/05/05 11:36:37;;;;;;;8.00;5.53;;;;;;;;;;5139884;27;20081;-88
2022/05/05 11:39:22;;;;;;;8.65;5.03;;;;;;;;;;5140019;27;20073;-88
2022/05/05 11:42:08;;;;;;;9.30;4.65;;;;;;;;;;5124684;27;20063;-87
2022/05/05 11:44:52;;;;;;;6.53;4.25;;;;;;;;;;5139020;27;20070;-87
2022/05/05 11:47:37;;;;;;;6.13;4.55;;;;;;;;;;5139937;27;20087;-87
2022/05/05 11:50:22;;;;;;;10.50;5.72;;;;;;;;;;5139531;27;20520;-87
2022/05/05 11:53:13;;;;;;;8.43;5.05;;;;;;;;;;5124778;27;20049;-88
2022/05/05 11:55:58;;;;;;;8.63;5.15;;;;;;;;;;5139469;27;20119;-87
2022/05/05 12:01:46;;;;;;;4.65;2.80;;;;;;;;;;5155323;27;20104;-87
2022/05/05 12:04:31;;;;;;;7.88;3.60;;;;;;;;;;5139589;27;20477;-86
2022/05/05 12:07:23;;;;;;;5.13;3.28;;;;;;;;;;5139014;27;20099;-89
2022/05/05 12:10:08;;;;;;;7.88;3.60;;;21.20;67.90;;;;;;5139061;27;20069;-87
2022/05/05 12:12:53;;;;;;;6.43;4.32;;;;;;;;;;5139025;27;20497;-88
2022/05/05 12:15:38;;;;;;;6.22;4.10;;;;;;;;;;5139000;27;20038;-87
2022/05/05 12:18:23;;;;;;;11.40;4.43;;;;;;;;;;5139048;27;20042;-87
2022/05/05 12:21:08;;;;;;;6.45;4.47;;;;;;;;;;5154697;27;20539;-87
2022/05/05 12:23:58;;;;;;;6.63;4.10;;;20.60;66.50;;;;;;5124767;27;20077;-87
2022/05/05 12:26:43;;;;;;;8.10;4.47;;;;;;;;;;5139104;27;20057;-87
2022/05/05 12:29:36;;;;;;;6.57;4.80;;;;;;;;;;5139170;27;20525;-87
2022/05/05 12:32:21;;;;;;;7.75;4.80;;;;;;;;;;5138660;27;20543;-88
2022/05/05 12:35:10;;;;;;;7.43;4.63;;;20.20;67.50;;;;;;5154464;27;20041;-88
2022/05/05 12:37:58;;;;;;;8.35;5.00;;;;;;;;;;5139567;27;20063;-87
2022/05/05 12:40:44;;;;;;;7.43;4.97;;;;;;;;;;5139083;27;20038;-87
2022/05/05 12:43:31;;;;;;;9.77;4.78;;;20.40;67.40;;;;;;5154811;27;20041;-87
2022/05/05 12:46:18;;;;;;;7.72;4.93;;;;;;;;;;5124987;27;20403;-86
2022/05/05 12:49:03;;;;;;;7.93;4.55;;;;;;;;;;5138270;27;20069;-88
2022/05/05 12:51:51;;;;;;;8.07;4.88;;;20.70;67.70;;;;;;5138990;27;20056;-89
2022/05/05 13:00:53;;;;;;;10.32;4.88;;;;;;;;;;5154630;27;20087;-88
2022/05/05 13:03:38;;;;;;;6.90;4.63;;;;;;;;;;5138934;27;20057;-88
2022/05/05 13:06:25;;;;;;;8.45;4.18;;;;;;;;;;5123624;27;20455;-87
2022/05/05 13:09:11;;;;;;;6.20;4.60;;;;;;;;;;5153742;27;20099;-87
2022/05/05 13:11:55;;;;;;;6.57;4.03;;;;;;;;;;5138385;27;20151;-87
2022/05/05 13:14:40;;;;;;;9.13;5.32;;;;;;;;;;5124069;27;20497;-87
2022/05/05 13:17:25;;;;;;;7.97;5.38;;;;;;;;;;5137952;27;20452;-88
2022/05/05 13:20:10;;;;;;;8.23;5.07;;;;;;;;;;5137833;27;20053;-88
2022/05/05 13:22:54;;;;;;;9.98;4.88;;;;;;;;;;5138104;27;20056;-88
2022/05/05 13:25:39;;;;;;;6.88;4.57;;;;;;;;;;5138132;27;20037;-87
2022/05/05 13:28:24;;;;;;;8.75;5.28;;;;;;;;;;5123082;27;20429;-87
2022/05/05 13:31:08;;;;;;;7.70;4.53;;;;;;;;;;5153426;27;20091;-87
2022/05/05 13:33:56;;;;;;;8.85;5.28;;;;;;;;;;5138170;27;20042;-87
2022/05/05 13:36:44;;;;;;;11.02;5.43;;;;;;;;;;5138279;27;20123;-87
2022/05/05 13:39:28;;;;;;;8.20;5.00;;;;;;;;;;5138014;27;20034;-87
2022/05/05 13:42:14;;;;;;;6.30;4.22;;;;;;;;;;5138224;27;20398;-89
2022/05/05 13:44:59;;;;;;;6.45;4.32;;;;;;;;;;5141791;27;20056;-87
2022/05/05 13:47:45;;;;;;;6.95;4.18;;;;;;;;;;5141771;27;20118;-88
2022/05/05 13:50:30;;;;;;;7.03;3.83;;;;;;;;;;5142002;27;20042;-87
2022/05/05 13:53:15;;;;;;;5.85;4.22;;;;;;;;;;5141351;27;20041;-87
2022/05/05 13:55:59;;;;;;;7.38;3.88;;;;;;;;;;5141771;27;20041;-89
2022/05/05 13:58:44;;;;;;;5.45;3.72;;;;;;;;;;5141493;27;20069;-89
2022/05/05 14:01:28;;;;;;;9.38;3.17;;;;;;;;;;5141024;27;20072;-87
2022/05/05 14:04:13;;;;;;;6.35;3.13;;;;;;;;;;5126475;27;20144;-88
2022/05/05 14:06:58;;;;;;;3.65;2.70;;;;;;;;;;5141434;27;20030;-88
2022/05/05 14:12:46;;;;;;;4.65;2.88;;;;;;;;;;5157081;27;20041;-88
2022/05/05 14:15:31;;;;;;;5.40;3.60;;;;;;;;;;5156366;27;20037;-88
2022/05/05 14:18:16;;;;;;;7.15;3.80;;;;;;;;;;5140841;27;20079;-86
2022/05/05 14:21:01;;;;;;;4.85;3.05;;;;;;;;;;5157045;27;20064;-87
2022/05/05 14:23:45;;;;;;;6.07;3.30;;;;;;;;;;5141231;27;20143;-87
2022/05/05 14:26:30;;;;;;;4.53;3.00;;;;;;;;;;5140324;27;20052;-87
2022/05/05 14:29:15;;;;;;;5.72;2.85;;;;;;;;;;5156193;27;20033;-87
2022/05/05 14:31:59;;;;;;;4.80;2.50;;;;;;;;;;5140866;27;20399;-87
2022/05/05 14:34:46;;;;;;;7.38;2.80;;;;;;;;;;5141019;27;20088;-88
2022/05/05 14:37:31;;;;;;;5.28;3.28;;;;;;;;;;5125985;27;20057;-87
2022/05/05 14:40:16;;;;;;;6.15;3.17;;;;;;;;;;5126011;27;20042;-88
2022/05/05 14:43:00;;;;;;;4.93;3.10;;;;;;;;;;5140878;27;20087;-87
2022/05/05 14:45:47;;;;;;;6.80;3.33;;;;;;;;;;5140566;27;20112;-88
2022/05/05 14:48:32;;;;;;;5.85;3.63;;;;;;;;;;5140209;27;20489;-87
2022/05/05 14:51:16;;;;;;;8.40;4.03;;;;;;;;;;5155781;27;20427;-87
2022/05/05 14:54:01;;;;;;;5.40;3.63;;;;;;;;;;5155682;27;20414;-88
2022/05/05 14:56:45;;;;;;;5.07;3.38;;;;;;;;;;5140601;27;20065;-88
2022/05/05 14:59:30;;;;;;;6.85;4.07;;;;;;;;;;5139874;27;20041;-87
2022/05/05 15:02:15;;;;;;;7.22;3.55;;;;;;;;;;5125416;27;20135;-87
2022/05/05 15:04:59;;;;;;;5.20;3.55;;;;;;;;;;5140465;27;20038;-87
2022/05/05 15:07:47;;;;;;;6.45;3.42;;;;;;;;;;5140189;27;20074;-88
2022/05/05 15:10:34;;;;;;;5.97;3.65;;;;;;;;;;5139725;27;20033;-88
2022/05/05 15:13:19;;;;;;;9.18;3.60;;;;;;;;;;5139661;27;20049;-87
2022/05/05 15:16:03;;;;;;;7.00;3.38;;;;;;;;;;5140074;27;20075;-87
2022/05/05 15:18:48;;;;;;;8.60;5.20;;;;;;;;;;5139950;27;20079;-88
2022/05/05 15:21:33;;;;;;;10.00;5.85;;;;;;;;;;5139609;27;20037;-87
2022/05/05 15:24:17;;;;;;;9.07;5.80;;;;;;;;;;5139364;27;20119;-87
2022/05/05 15:27:05;;;;;;;9.90;6.00;;;;;;;;;;5125523;27;20081;-88
2022/05/05 15:29:53;;;;;;;11.13;6.00;;;;;;;;;;5139819;27;20038;-87
2022/05/05 15:32:38;;;;;;;10.23;6.68;;;;;;;;;;5139771;27;20037;-88
2022/05/05 15:35:25;;;;;;;10.02;6.00;;;;;;;;;;5139282;27;20034;-88
2022/05/05 15:38:09;;;;;;;8.00;5.82;;;;;;;;;;5140088;27;20083;-90
2022/05/05 15:40:55;;;;;;;10.27;6.47;;;;;;;;;;5139739;27;20406;-88
2022/05/05 15:43:43;;;;;;;10.15;5.97;;;;;;;;;;5138897;27;20046;-88
2022/05/05 15:46:27;;;;;;;12.50;6.28;;;;;;;;;;5154826;27;20034;-87
2022/05/05 15:49:12;;;;;;;9.38;6.43;;;;;;;;;;5155123;27;20083;-87
2022/05/05 15:52:01;;;;;;;8.82;6.38;;;;;;;;;;5139401;27;20079;-87
2022/05/05 15:54:46;;;;;;;11.07;5.43;;;;;;;;;;5139242;27;20040;-87
2022/05/05 15:57:31;;;;;;;10.88;6.00;;;;;;;;;;5138909;27;20419;-87
2022/05/05 16:00:16;;;;;;;9.25;6.18;;;;;;;;;;5139100;27;20115;-87
2022/05/05 16:03:00;;;;;;;12.85;6.35;;;;;;;;;;5139224;27;20500;-88
2022/05/05 16:05:53;;;;;;;7.85;5.60;;;;;;;;;;5138578;27;20042;-87
2022/05/05 16:08:38;;;;;;;10.40;5.90;;;;;;;;;;5138683;27;20037;-88
2022/05/05 16:11:22;;;;;;;8.15;5.88;;;;;;;;;;5154271;27;20049;-88
2022/05/05 16:14:07;;;;;;;9.65;6.25;;;;;;;;;;5124598;27;20088;-88
2022/05/05 16:16:52;;;;;;;10.07;6.00;;;;;;;;;;5124411;27;20069;-88
2022/05/05 16:19:37;;;;;;;11.20;6.13;;;;;;;;;;5138712;27;20471;-87
2022/05/05 16:22:21;;;;;;;11.07;6.25;;;;;;;;;;5154473;27;20130;-88
2022/05/05 16:31:14;;;;;;;13.57;5.78;;;;;;;;;;5154550;27;20531;-87
2022/05/05 16:33:59;;;;;;;9.70;5.40;;;;;;;;;;5124193;27;20405;-87
2022/05/05 16:36:44;;;;;;;11.15;6.20;;;;;;;;;;5123784;27;20045;-87
2022/05/05 16:39:30;;;;;;;12.30;6.57;;;;;;;;;;5138207;27;20038;-88
2022/05/05 16:42:15;;;;;;;9.82;6.40;;;;;;;;;;5138393;27;20042;-88
2022/05/05 16:45:00;;;;;;;10.13;5.75;;;;;;;;;;5138744;27;20076;-87
2022/05/05 16:47:47;;;;;;;11.95;6.70;;;;;;;;;;5138010;27;20041;-88
2022/05/05 16:50:32;;;;;;;8.15;4.90;;;;;;;;;;5138110;27;20118;-88
2022/05/05 16:53:17;;;;;;;10.57;6.38;;;;;;;;;;5138606;27;20056;-87
2022/05/05 16:56:02;;;;;;;12.35;5.97;;;;;;;;;;5138454;27;20114;-87
2022/05/05 16:58:47;;;;;;;9.57;6.55;;;;;;;;;;5141720;27;20649;-86
2022/05/05 17:01:32;;;;;;;8.77;6.05;;;;;;;;;;5149062;27;20042;-86
2022/05/05 17:04:16;;;;;;;12.75;6.88;;;;;;;;;;5151212;27;20041;-87
2022/05/05 17:07:01;;;;;;;9.52;5.80;;;;;;;;;;5151329;27;20060;-88
2022/05/05 17:09:46;;;;;;;8.40;5.93;;;;;;;;;;5148191;27;20527;-88
2022/05/05 17:12:30;;;;;;;13.27;7.20;;;;;;;;;;5149228;27;20041;-88
2022/05/05 17:15:15;;;;;;;12.65;7.40;;;;;;;;;;5149041;27;20087;-87
2022/05/05 17:18:03;;;;;;;14.00;8.13;;;;;;;;;;5154312;27;20041;-87
2022/05/05 17:20:47;;;;;;;13.02;7.90;;;;;;;;;;5144747;27;20026;-89